Impacts METAR Board
IDs:

KIAH - Houston/Bush Intl, TX, US

Updated at: 0700 UTC 16 Oct 2018
Potential Impact None Slight Moderate High
Time 15/19Z 15/20Z 15/21Z 15/22Z 15/23Z 16/00Z 16/01Z 16/02Z 16/03Z 16/04Z 16/05Z 16/06Z 16/07Z
Temp58 59 59 58 57 56 55 56 57 57 59 59 57
Dewpt56 57 57 57 57 55 54 56 57 57 58 58 57
Altim30.04 30.03 30.05 30.06 30.08 30.08 30.06 30.09 30.08 30.09 30.08 30.08 30.08
VIS10 10 10 2 4 10 10 10 10 10 10 10 3
CIG8 9 8 7 7 8 9 9 8 7 7 6 4
CoverOVCOVCOVCOVCOVCOVCOVCOVCOVCOVCOVCOVCOVC
FltCatIFRIFRIFRIFRIFRIFRIFRIFRIFRIFRIFRIFRLIFR
WX---RA--+RA BRRA BR-RA------------BR
WDir360360330330330350101035010340330350
WSpd14 11 10 11 13 13 14 11 10 10 8 9 10
WGst20 -- -- -- -- -- -- -- -- -- -- -- --
Raw hourly METARs
KIAH 151853Z 36014G20KT 10SM OVC008 14/13 A3004 RMK AO2 LTG DSNT W SLP171 EMBDD CB DSNT SW-W T01440133
KIAH 151953Z 36011KT 10SM -RA OVC009 15/14 A3003 RMK AO2 RAB32 SLP168 LTG DSNT E EMBDD CB DSNT E MOV NE P0000 T01500139
KIAH 152053Z 33010KT 10SM OVC008 15/14 A3005 RMK AO2 RAE26 SLP175 P0003 60003 T01500139 55002
KIAH 152203Z 33011KT 2SM +RA BR OVC007 14/14 A3006 RMK AO2 RAB00 P0000 T01440139
KIAH 152253Z 33013KT 4SM RA BR BKN007 OVC016 14/14 A3008 RMK AO2 RAB00 SLP184 P0025 T01390139
KIAH 152353Z 35013KT 10SM -RA BKN008 OVC017 13/13 A3008 RMK AO2 RAE12B43 SLP184 P0001 60031 T01330128 10167 20133 50009
KIAH 160053Z 01014KT 10SM BKN009 OVC020 13/12 A3006 RMK AO2 RAE2357B39E47 SLP180 P0000 T01280122
KIAH 160153Z 01011KT 10SM BKN009 OVC019 13/13 A3009 RMK AO2 SLP187 T01330133
KIAH 160253Z 35010KT 10SM BKN008 OVC017 14/14 A3008 RMK AO2 SLP185 60000 T01390139 53001
KIAH 160353Z 01010KT 10SM OVC007 14/14 A3009 RMK AO2 SLP187 T01390139
KIAH 160453Z 34008KT 10SM OVC007 15/14 A3008 RMK AO2 SLP185 T01500144
KIAH 160553Z 33009KT 10SM OVC006 15/14 A3008 RMK AO2 SLP185 60000 T01500144 10150 20128 402560128 51000
KIAH 160653Z 35010KT 3SM BR OVC004 14/14 A3008 RMK AO2 SLP184 T01390139



Page loaded:  07:59 UTC  |   12:59 AM Pacific  |   01:59 AM Mountain  |   02:59 AM Central  |   03:59 AM Eastern

 

ADVISORIES

FORECASTS

FORECASTS

OBSERVATIONS

USER TOOLS

ABOUT US